sensor_id;sensor_type;location;lat;lon;timestamp;pressure;altitude;pressure_sealevel;temperature;humidity
75006;BME280;63553;51.814;4.600;2023-09-19T00:02:01;100878.06;;;19.39;70.33
75006;BME280;63553;51.814;4.600;2023-09-19T00:04:26;100884.06;;;19.37;66.45
75006;BME280;63553;51.814;4.600;2023-09-19T00:06:54;100881.94;;;19.83;66.61
75006;BME280;63553;51.814;4.600;2023-09-19T00:09:19;100889.59;;;19.04;64.22
75006;BME280;63553;51.814;4.600;2023-09-19T00:11:45;100893.38;;;19.98;66.33
75006;BME280;63553;51.814;4.600;2023-09-19T00:14:12;100893.88;;;20.36;64.12
75006;BME280;63553;51.814;4.600;2023-09-19T00:16:39;100900.94;;;19.60;62.76
75006;BME280;63553;51.814;4.600;2023-09-19T00:19:06;100900.94;;;19.08;60.71
75006;BME280;63553;51.814;4.600;2023-09-19T00:21:32;100903.13;;;18.95;66.27
75006;BME280;63553;51.814;4.600;2023-09-19T00:23:58;100905.34;;;19.87;64.75
75006;BME280;63553;51.814;4.600;2023-09-19T00:26:23;100909.13;;;20.32;62.94
75006;BME280;63553;51.814;4.600;2023-09-19T00:28:52;100909.31;;;20.49;61.95
75006;BME280;63553;51.814;4.600;2023-09-19T00:31:17;100923.72;;;19.22;63.14
75006;BME280;63553;51.814;4.600;2023-09-19T00:33:43;100923.25;;;18.71;61.40
75006;BME280;63553;51.814;4.600;2023-09-19T00:36:08;100925.38;;;18.77;63.16
75006;BME280;63553;51.814;4.600;2023-09-19T00:38:34;100916.75;;;18.48;63.33
75006;BME280;63553;51.814;4.600;2023-09-19T00:40:59;100926.38;;;19.37;64.38
75006;BME280;63553;51.814;4.600;2023-09-19T00:43:27;100917.59;;;19.42;64.07
75006;BME280;63553;51.814;4.600;2023-09-19T00:45:56;100928.78;;;19.35;64.06
75006;BME280;63553;51.814;4.600;2023-09-19T00:48:22;100928.75;;;19.09;66.52
75006;BME280;63553;51.814;4.600;2023-09-19T00:50:49;100932.25;;;19.52;64.97
75006;BME280;63553;51.814;4.600;2023-09-19T00:53:18;100925.69;;;18.95;66.61
75006;BME280;63553;51.814;4.600;2023-09-19T00:55:45;100926.25;;;18.59;66.07
75006;BME280;63553;51.814;4.600;2023-09-19T00:58:11;100923.38;;;18.55;64.79
75006;BME280;63553;51.814;4.600;2023-09-19T01:00:37;100929.06;;;18.59;67.20
75006;BME280;63553;51.814;4.600;2023-09-19T01:03:03;100933.09;;;18.19;65.82
75006;BME280;63553;51.814;4.600;2023-09-19T01:05:29;100936.28;;;18.79;63.93
75006;BME280;63553;51.814;4.600;2023-09-19T01:07:55;100930.91;;;19.19;64.56
75006;BME280;63553;51.814;4.600;2023-09-19T01:10:21;100934.56;;;18.74;65.64
75006;BME280;63553;51.814;4.600;2023-09-19T01:13:15;100947.44;;;17.76;64.49
75006;BME280;63553;51.814;4.600;2023-09-19T01:15:51;100941.66;;;17.69;64.68
75006;BME280;63553;51.814;4.600;2023-09-19T01:29:39;100944.50;;;17.88;68.23
75006;BME280;63553;51.814;4.600;2023-09-19T01:32:10;100947.63;;;17.33;67.23
75006;BME280;63553;51.814;4.600;2023-09-19T01:34:51;100951.91;;;18.54;66.70
75006;BME280;63553;51.814;4.600;2023-09-19T01:37:19;100946.16;;;19.15;65.38
75006;BME280;63553;51.814;4.600;2023-09-19T01:39:59;100948.81;;;18.01;63.50
75006;BME280;63553;51.814;4.600;2023-09-19T01:42:41;100944.06;;;18.85;65.71
75006;BME280;63553;51.814;4.600;2023-09-19T01:51:07;100945.22;;;19.33;62.91
75006;BME280;63553;51.814;4.600;2023-09-19T01:53:58;100935.03;;;19.25;62.60
75006;BME280;63553;51.814;4.600;2023-09-19T01:56:47;100938.41;;;19.34;60.03
75006;BME280;63553;51.814;4.600;2023-09-19T01:59:17;100938.22;;;19.47;60.60
75006;BME280;63553;51.814;4.600;2023-09-19T02:01:47;100935.19;;;19.10;62.07
75006;BME280;63553;51.814;4.600;2023-09-19T02:04:14;100940.34;;;18.20;63.21
75006;BME280;63553;51.814;4.600;2023-09-19T02:06:42;100945.34;;;19.14;62.42
75006;BME280;63553;51.814;4.600;2023-09-19T02:09:08;100947.28;;;18.65;62.84
75006;BME280;63553;51.814;4.600;2023-09-19T02:11:34;100949.03;;;18.96;61.44
75006;BME280;63553;51.814;4.600;2023-09-19T02:14:00;100951.16;;;18.57;64.63
75006;BME280;63553;51.814;4.600;2023-09-19T02:16:26;100954.13;;;17.87;65.25
75006;BME280;63553;51.814;4.600;2023-09-19T02:18:51;100958.53;;;17.03;65.39
75006;BME280;63553;51.814;4.600;2023-09-19T02:21:17;100954.91;;;17.53;64.71
75006;BME280;63553;51.814;4.600;2023-09-19T02:23:46;100965.16;;;17.96;66.91
75006;BME280;63553;51.814;4.600;2023-09-19T02:26:12;100962.22;;;17.73;66.25
75006;BME280;63553;51.814;4.600;2023-09-19T02:28:39;100954.22;;;17.56;65.17
75006;BME280;63553;51.814;4.600;2023-09-19T02:31:04;100953.75;;;18.46;64.87
75006;BME280;63553;51.814;4.600;2023-09-19T02:33:32;100951.06;;;17.57;67.85
75006;BME280;63553;51.814;4.600;2023-09-19T02:35:58;100963.69;;;17.67;66.86
75006;BME280;63553;51.814;4.600;2023-09-19T02:38:25;100956.09;;;17.01;67.93
75006;BME280;63553;51.814;4.600;2023-09-19T02:40:54;100959.97;;;16.65;70.81
75006;BME280;63553;51.814;4.600;2023-09-19T02:43:20;100964.81;;;17.47;69.01
75006;BME280;63553;51.814;4.600;2023-09-19T02:45:46;100966.84;;;17.15;65.81
75006;BME280;63553;51.814;4.600;2023-09-19T02:48:12;100968.00;;;16.67;69.44
75006;BME280;63553;51.814;4.600;2023-09-19T02:50:37;100956.97;;;17.21;67.86
75006;BME280;63553;51.814;4.600;2023-09-19T02:53:05;100967.91;;;17.26;68.86
75006;BME280;63553;51.814;4.600;2023-09-19T02:55:31;100952.06;;;17.18;67.59
75006;BME280;63553;51.814;4.600;2023-09-19T02:57:57;100967.28;;;16.70;69.70
75006;BME280;63553;51.814;4.600;2023-09-19T03:00:22;100959.16;;;17.28;66.89
75006;BME280;63553;51.814;4.600;2023-09-19T03:02:50;100965.13;;;17.10;66.66
75006;BME280;63553;51.814;4.600;2023-09-19T03:05:15;100971.38;;;16.73;67.90
75006;BME280;63553;51.814;4.600;2023-09-19T03:07:41;100959.94;;;17.59;68.16
75006;BME280;63553;51.814;4.600;2023-09-19T03:10:08;100959.06;;;16.77;66.47
75006;BME280;63553;51.814;4.600;2023-09-19T03:12:34;100958.34;;;16.80;68.55
75006;BME280;63553;51.814;4.600;2023-09-19T03:15:00;100960.84;;;17.32;69.31
75006;BME280;63553;51.814;4.600;2023-09-19T03:17:26;100955.03;;;17.56;67.98
75006;BME280;63553;51.814;4.600;2023-09-19T03:19:51;100957.31;;;17.35;69.73
75006;BME280;63553;51.814;4.600;2023-09-19T03:22:16;100958.66;;;17.57;68.30
75006;BME280;63553;51.814;4.600;2023-09-19T03:24:43;100953.16;;;17.80;66.65
75006;BME280;63553;51.814;4.600;2023-09-19T03:27:12;100963.94;;;17.27;68.30
75006;BME280;63553;51.814;4.600;2023-09-19T03:29:41;100963.84;;;17.55;66.83
75006;BME280;63553;51.814;4.600;2023-09-19T03:32:07;100959.78;;;17.05;65.23
75006;BME280;63553;51.814;4.600;2023-09-19T03:34:32;100956.03;;;17.33;65.82
75006;BME280;63553;51.814;4.600;2023-09-19T03:36:57;100963.31;;;17.84;64.61
75006;BME280;63553;51.814;4.600;2023-09-19T03:39:23;100966.84;;;16.68;67.37
75006;BME280;63553;51.814;4.600;2023-09-19T03:41:48;100961.84;;;16.34;70.35
75006;BME280;63553;51.814;4.600;2023-09-19T03:44:14;100959.72;;;16.86;65.42
75006;BME280;63553;51.814;4.600;2023-09-19T03:46:40;100956.34;;;16.96;65.51
75006;BME280;63553;51.814;4.600;2023-09-19T03:49:05;100942.28;;;17.78;67.64
75006;BME280;63553;51.814;4.600;2023-09-19T03:51:31;100944.47;;;17.69;67.32
75006;BME280;63553;51.814;4.600;2023-09-19T03:53:56;100959.88;;;16.93;67.26
75006;BME280;63553;51.814;4.600;2023-09-19T03:56:22;100970.94;;;18.03;66.81
75006;BME280;63553;51.814;4.600;2023-09-19T03:58:47;100970.66;;;17.73;66.92
75006;BME280;63553;51.814;4.600;2023-09-19T04:01:12;100972.81;;;17.29;68.34
75006;BME280;63553;51.814;4.600;2023-09-19T04:03:38;100974.31;;;16.36;70.58
75006;BME280;63553;51.814;4.600;2023-09-19T04:06:16;100982.25;;;17.21;69.95
75006;BME280;63553;51.814;4.600;2023-09-19T04:08:42;100977.69;;;16.70;68.54
75006;BME280;63553;51.814;4.600;2023-09-19T04:11:09;100978.34;;;17.41;67.53
75006;BME280;63553;51.814;4.600;2023-09-19T04:13:34;100982.69;;;17.39;66.17
75006;BME280;63553;51.814;4.600;2023-09-19T04:16:00;100992.25;;;17.18;67.18
75006;BME280;63553;51.814;4.600;2023-09-19T04:18:25;100996.19;;;17.64;66.35
75006;BME280;63553;51.814;4.600;2023-09-19T04:20:51;101005.38;;;17.46;67.91
75006;BME280;63553;51.814;4.600;2023-09-19T04:23:16;101011.53;;;18.21;65.96
75006;BME280;63553;51.814;4.600;2023-09-19T04:25:42;101014.59;;;17.97;66.15
75006;BME280;63553;51.814;4.600;2023-09-19T04:28:08;101009.41;;;17.64;64.42
75006;BME280;63553;51.814;4.600;2023-09-19T04:30:35;101016.41;;;17.70;66.21
75006;BME280;63553;51.814;4.600;2023-09-19T04:33:01;101012.59;;;17.78;66.11
75006;BME280;63553;51.814;4.600;2023-09-19T04:35:28;101002.59;;;17.81;66.81
75006;BME280;63553;51.814;4.600;2023-09-19T04:37:57;101001.25;;;17.43;67.54
75006;BME280;63553;51.814;4.600;2023-09-19T04:40:22;101014.50;;;16.96;68.40
75006;BME280;63553;51.814;4.600;2023-09-19T04:42:56;101017.75;;;16.82;67.54
75006;BME280;63553;51.814;4.600;2023-09-19T04:45:22;100998.38;;;17.40;66.45
75006;BME280;63553;51.814;4.600;2023-09-19T04:47:48;101003.97;;;17.71;66.70
75006;BME280;63553;51.814;4.600;2023-09-19T04:50:13;101010.97;;;17.61;65.53
75006;BME280;63553;51.814;4.600;2023-09-19T04:52:43;101015.69;;;16.95;68.03
75006;BME280;63553;51.814;4.600;2023-09-19T04:55:15;101018.69;;;17.33;67.87
75006;BME280;63553;51.814;4.600;2023-09-19T04:57:49;101019.41;;;16.83;69.74
75006;BME280;63553;51.814;4.600;2023-09-19T05:00:16;101023.06;;;17.15;68.24
75006;BME280;63553;51.814;4.600;2023-09-19T05:02:42;101020.75;;;16.74;68.86
75006;BME280;63553;51.814;4.600;2023-09-19T05:05:09;101019.47;;;16.71;69.91
75006;BME280;63553;51.814;4.600;2023-09-19T05:07:41;101030.56;;;16.40;69.70
75006;BME280;63553;51.814;4.600;2023-09-19T05:10:07;101023.00;;;16.68;69.21
75006;BME280;63553;51.814;4.600;2023-09-19T05:12:34;101020.06;;;17.23;67.80
75006;BME280;63553;51.814;4.600;2023-09-19T05:15:00;101032.19;;;16.96;69.41
75006;BME280;63553;51.814;4.600;2023-09-19T05:17:27;101023.22;;;17.53;67.42
75006;BME280;63553;51.814;4.600;2023-09-19T05:19:52;101027.03;;;17.14;69.98
75006;BME280;63553;51.814;4.600;2023-09-19T05:22:18;101018.47;;;16.79;69.21
75006;BME280;63553;51.814;4.600;2023-09-19T05:24:44;101025.47;;;16.57;70.02
75006;BME280;63553;51.814;4.600;2023-09-19T05:27:13;101019.22;;;17.07;71.27
75006;BME280;63553;51.814;4.600;2023-09-19T05:29:38;101026.00;;;16.47;71.29
75006;BME280;63553;51.814;4.600;2023-09-19T05:32:04;101028.47;;;17.23;70.80
75006;BME280;63553;51.814;4.600;2023-09-19T05:34:30;101022.31;;;17.65;68.02
75006;BME280;63553;51.814;4.600;2023-09-19T05:36:56;101030.09;;;16.78;69.84
75006;BME280;63553;51.814;4.600;2023-09-19T05:39:21;101025.84;;;16.56;71.65
75006;BME280;63553;51.814;4.600;2023-09-19T05:41:48;101014.16;;;17.60;69.89
75006;BME280;63553;51.814;4.600;2023-09-19T05:44:13;101015.16;;;17.05;70.68
75006;BME280;63553;51.814;4.600;2023-09-19T05:46:39;101017.25;;;16.92;70.89
75006;BME280;63553;51.814;4.600;2023-09-19T05:49:05;101017.75;;;16.82;71.32
75006;BME280;63553;51.814;4.600;2023-09-19T05:51:30;101020.25;;;17.31;70.42
75006;BME280;63553;51.814;4.600;2023-09-19T05:53:55;101020.13;;;17.58;68.77
75006;BME280;63553;51.814;4.600;2023-09-19T05:56:21;101025.69;;;17.23;71.00
75006;BME280;63553;51.814;4.600;2023-09-19T05:58:47;101021.31;;;17.26;70.24
75006;BME280;63553;51.814;4.600;2023-09-19T06:01:13;101023.22;;;17.38;71.78
75006;BME280;63553;51.814;4.600;2023-09-19T06:03:38;101032.44;;;16.91;72.29
75006;BME280;63553;51.814;4.600;2023-09-19T06:06:04;101045.56;;;16.87;73.13
75006;BME280;63553;51.814;4.600;2023-09-19T06:08:32;101055.09;;;16.55;73.42
75006;BME280;63553;51.814;4.600;2023-09-19T06:10:57;101047.22;;;16.33;73.47
75006;BME280;63553;51.814;4.600;2023-09-19T06:13:22;101051.81;;;16.53;72.98
75006;BME280;63553;51.814;4.600;2023-09-19T06:15:50;101051.81;;;16.13;74.67
75006;BME280;63553;51.814;4.600;2023-09-19T06:18:16;101054.50;;;16.61;75.59
75006;BME280;63553;51.814;4.600;2023-09-19T06:20:47;101060.22;;;16.53;76.86
75006;BME280;63553;51.814;4.600;2023-09-19T06:23:13;101061.47;;;16.28;75.25
75006;BME280;63553;51.814;4.600;2023-09-19T06:25:39;101071.28;;;16.74;81.92
75006;BME280;63553;51.814;4.600;2023-09-19T06:28:05;101049.53;;;17.61;83.09
75006;BME280;63553;51.814;4.600;2023-09-19T06:30:33;101051.44;;;17.72;79.68
75006;BME280;63553;51.814;4.600;2023-09-19T06:33:00;101051.41;;;16.94;73.86
75006;BME280;63553;51.814;4.600;2023-09-19T06:35:26;101055.00;;;16.79;74.12
75006;BME280;63553;51.814;4.600;2023-09-19T06:37:53;101053.34;;;17.21;77.00
75006;BME280;63553;51.814;4.600;2023-09-19T06:40:18;101053.59;;;17.16;77.19
75006;BME280;63553;51.814;4.600;2023-09-19T06:42:45;101051.50;;;17.76;71.65
75006;BME280;63553;51.814;4.600;2023-09-19T06:45:15;101052.78;;;17.16;74.27
75006;BME280;63553;51.814;4.600;2023-09-19T06:47:47;101057.22;;;17.01;73.59
75006;BME280;63553;51.814;4.600;2023-09-19T06:50:15;101049.56;;;17.96;73.79
75006;BME280;63553;51.814;4.600;2023-09-19T06:52:44;101058.75;;;17.77;70.36
75006;BME280;63553;51.814;4.600;2023-09-19T06:55:11;101057.53;;;18.48;70.59
75006;BME280;63553;51.814;4.600;2023-09-19T06:57:38;101058.31;;;18.10;70.75
75006;BME280;63553;51.814;4.600;2023-09-19T07:00:06;101049.91;;;18.86;66.21
75006;BME280;63553;51.814;4.600;2023-09-19T07:02:39;101054.38;;;18.88;70.24
75006;BME280;63553;51.814;4.600;2023-09-19T07:05:06;101049.59;;;18.50;68.05
75006;BME280;63553;51.814;4.600;2023-09-19T07:07:32;101058.31;;;18.64;69.82
75006;BME280;63553;51.814;4.600;2023-09-19T07:10:00;101059.28;;;19.36;66.50
75006;BME280;63553;51.814;4.600;2023-09-19T07:12:26;101059.41;;;18.59;68.08
75006;BME280;63553;51.814;4.600;2023-09-19T07:14:51;101051.72;;;18.75;69.14
75006;BME280;63553;51.814;4.600;2023-09-19T07:17:16;101060.94;;;17.84;69.58
75006;BME280;63553;51.814;4.600;2023-09-19T07:19:44;101056.25;;;18.61;68.17
75006;BME280;63553;51.814;4.600;2023-09-19T07:22:10;101052.00;;;18.32;68.68
75006;BME280;63553;51.814;4.600;2023-09-19T07:24:35;101056.28;;;18.26;69.73
75006;BME280;63553;51.814;4.600;2023-09-19T07:27:02;101063.53;;;18.27;69.69
75006;BME280;63553;51.814;4.600;2023-09-19T07:29:28;101062.09;;;19.13;66.59
75006;BME280;63553;51.814;4.600;2023-09-19T07:31:53;101062.38;;;19.50;65.09
75006;BME280;63553;51.814;4.600;2023-09-19T07:34:19;101065.38;;;19.61;65.53
75006;BME280;63553;51.814;4.600;2023-09-19T07:36:46;101064.56;;;19.15;65.42
75006;BME280;63553;51.814;4.600;2023-09-19T07:39:12;101059.38;;;19.39;65.58
75006;BME280;63553;51.814;4.600;2023-09-19T07:41:37;101062.53;;;19.15;65.20
75006;BME280;63553;51.814;4.600;2023-09-19T07:44:03;101059.94;;;19.49;65.50
75006;BME280;63553;51.814;4.600;2023-09-19T07:46:28;101062.47;;;20.06;64.07
75006;BME280;63553;51.814;4.600;2023-09-19T07:48:56;101067.69;;;20.04;63.93
75006;BME280;63553;51.814;4.600;2023-09-19T07:51:22;101068.88;;;18.90;66.71
75006;BME280;63553;51.814;4.600;2023-09-19T07:53:47;101064.53;;;19.83;63.86
75006;BME280;63553;51.814;4.600;2023-09-19T07:56:13;101064.03;;;19.09;65.13
75006;BME280;63553;51.814;4.600;2023-09-19T07:58:39;101062.19;;;19.62;65.09
75006;BME280;63553;51.814;4.600;2023-09-19T08:01:07;101066.41;;;19.07;66.09
75006;BME280;63553;51.814;4.600;2023-09-19T08:03:33;101064.84;;;20.04;64.59
75006;BME280;63553;51.814;4.600;2023-09-19T08:06:00;101065.91;;;20.22;62.14
75006;BME280;63553;51.814;4.600;2023-09-19T08:08:26;101068.78;;;19.47;65.05
75006;BME280;63553;51.814;4.600;2023-09-19T08:10:55;101067.63;;;20.57;62.42
75006;BME280;63553;51.814;4.600;2023-09-19T08:13:25;101071.94;;;20.21;61.90
75006;BME280;63553;51.814;4.600;2023-09-19T08:15:50;101070.28;;;20.46;62.17
75006;BME280;63553;51.814;4.600;2023-09-19T08:18:16;101067.09;;;19.91;63.30
75006;BME280;63553;51.814;4.600;2023-09-19T08:20:42;101064.78;;;19.29;64.58
75006;BME280;63553;51.814;4.600;2023-09-19T08:23:08;101064.75;;;19.71;63.15
75006;BME280;63553;51.814;4.600;2023-09-19T08:25:34;101068.59;;;20.12;62.47
75006;BME280;63553;51.814;4.600;2023-09-19T08:28:00;101051.94;;;19.77;63.85
75006;BME280;63553;51.814;4.600;2023-09-19T08:30:27;101059.03;;;19.22;64.38
75006;BME280;63553;51.814;4.600;2023-09-19T08:32:59;101053.59;;;19.32;64.63
75006;BME280;63553;51.814;4.600;2023-09-19T08:35:24;101038.81;;;19.88;62.42
75006;BME280;63553;51.814;4.600;2023-09-19T08:37:50;101048.13;;;20.18;62.73
75006;BME280;63553;51.814;4.600;2023-09-19T08:40:16;101044.19;;;20.56;61.36
75006;BME280;63553;51.814;4.600;2023-09-19T08:45:15;101051.13;;;19.31;64.13
75006;BME280;63553;51.814;4.600;2023-09-19T08:47:46;101038.25;;;19.79;62.14
75006;BME280;63553;51.814;4.600;2023-09-19T08:50:26;101035.53;;;20.12;61.60
75006;BME280;63553;51.814;4.600;2023-09-19T08:52:59;101047.63;;;20.39;61.25
75006;BME280;63553;51.814;4.600;2023-09-19T08:55:28;101036.69;;;20.37;61.33
75006;BME280;63553;51.814;4.600;2023-09-19T08:58:03;101025.53;;;21.18;59.06
75006;BME280;63553;51.814;4.600;2023-09-19T09:00:30;101036.25;;;21.42;57.39
75006;BME280;63553;51.814;4.600;2023-09-19T09:02:56;101035.13;;;22.05;56.52
75006;BME280;63553;51.814;4.600;2023-09-19T09:05:23;101029.78;;;21.42;57.63
75006;BME280;63553;51.814;4.600;2023-09-19T09:07:49;101039.69;;;22.24;55.45
75006;BME280;63553;51.814;4.600;2023-09-19T09:10:21;101041.13;;;21.45;57.55
75006;BME280;63553;51.814;4.600;2023-09-19T09:12:51;101032.97;;;21.00;58.99
75006;BME280;63553;51.814;4.600;2023-09-19T09:15:19;101046.72;;;21.38;58.74
75006;BME280;63553;51.814;4.600;2023-09-19T09:17:50;101040.56;;;21.77;57.35
75006;BME280;63553;51.814;4.600;2023-09-19T09:20:18;101025.59;;;21.73;57.83
75006;BME280;63553;51.814;4.600;2023-09-19T09:22:51;101049.25;;;21.50;58.34
75006;BME280;63553;51.814;4.600;2023-09-19T09:25:17;101043.66;;;21.57;57.82
75006;BME280;63553;51.814;4.600;2023-09-19T09:27:43;101040.31;;;21.45;57.20
75006;BME280;63553;51.814;4.600;2023-09-19T09:30:08;101055.50;;;21.26;58.55
75006;BME280;63553;51.814;4.600;2023-09-19T09:32:34;101054.44;;;21.04;60.14
75006;BME280;63553;51.814;4.600;2023-09-19T09:35:03;101046.28;;;20.29;60.50
75006;BME280;63553;51.814;4.600;2023-09-19T09:37:34;101035.16;;;20.77;60.56
75006;BME280;63553;51.814;4.600;2023-09-19T09:40:04;101040.25;;;20.64;61.52
75006;BME280;63553;51.814;4.600;2023-09-19T09:42:52;101042.59;;;20.92;59.96
75006;BME280;63553;51.814;4.600;2023-09-19T09:45:24;101026.13;;;21.41;59.02
75006;BME280;63553;51.814;4.600;2023-09-19T09:47:59;101035.63;;;21.63;58.30
75006;BME280;63553;51.814;4.600;2023-09-19T09:50:33;101042.59;;;20.92;60.75
75006;BME280;63553;51.814;4.600;2023-09-19T09:56:08;101025.75;;;21.43;58.12
75006;BME280;63553;51.814;4.600;2023-09-19T10:01:13;101032.28;;;20.73;59.31
75006;BME280;63553;51.814;4.600;2023-09-19T10:03:41;101044.91;;;20.83;58.82
75006;BME280;63553;51.814;4.600;2023-09-19T10:06:14;101038.25;;;20.65;59.84
75006;BME280;63553;51.814;4.600;2023-09-19T10:08:59;101030.94;;;20.97;58.99
75006;BME280;63553;51.814;4.600;2023-09-19T10:11:30;101034.81;;;20.82;60.08
75006;BME280;63553;51.814;4.600;2023-09-19T10:13:55;101024.72;;;20.18;61.57
75006;BME280;63553;51.814;4.600;2023-09-19T10:16:21;101035.16;;;21.10;60.10
75006;BME280;63553;51.814;4.600;2023-09-19T10:18:51;101012.50;;;20.36;60.42
75006;BME280;63553;51.814;4.600;2023-09-19T10:21:19;101020.72;;;20.85;60.67
75006;BME280;63553;51.814;4.600;2023-09-19T10:23:48;101015.09;;;20.89;60.00
75006;BME280;63553;51.814;4.600;2023-09-19T10:26:17;100995.81;;;20.61;60.29
75006;BME280;63553;51.814;4.600;2023-09-19T10:28:43;100990.84;;;20.88;60.08
75006;BME280;63553;51.814;4.600;2023-09-19T10:31:13;100995.72;;;20.87;59.71
75006;BME280;63553;51.814;4.600;2023-09-19T10:33:43;100999.75;;;20.86;60.03
75006;BME280;63553;51.814;4.600;2023-09-19T10:36:09;100977.19;;;20.93;58.75
75006;BME280;63553;51.814;4.600;2023-09-19T10:38:37;100985.16;;;21.21;58.33
75006;BME280;63553;51.814;4.600;2023-09-19T10:41:06;100992.13;;;20.94;59.41
75006;BME280;63553;51.814;4.600;2023-09-19T10:43:33;100988.28;;;20.72;59.17
75006;BME280;63553;51.814;4.600;2023-09-19T10:46:02;100991.63;;;21.22;58.31
75006;BME280;63553;51.814;4.600;2023-09-19T10:48:31;101011.59;;;21.02;58.61
75006;BME280;63553;51.814;4.600;2023-09-19T10:51:02;100997.28;;;21.22;58.63
75006;BME280;63553;51.814;4.600;2023-09-19T10:53:39;100990.47;;;21.30;58.44
75006;BME280;63553;51.814;4.600;2023-09-19T10:56:06;100992.91;;;20.87;59.01
75006;BME280;63553;51.814;4.600;2023-09-19T10:58:35;100984.31;;;21.17;58.32
75006;BME280;63553;51.814;4.600;2023-09-19T11:01:04;100974.66;;;21.22;57.94
75006;BME280;63553;51.814;4.600;2023-09-19T11:03:40;100972.94;;;21.10;57.84
75006;BME280;63553;51.814;4.600;2023-09-19T11:06:15;100964.84;;;21.09;57.86
75006;BME280;63553;51.814;4.600;2023-09-19T11:09:02;100970.38;;;20.98;58.64
75006;BME280;63553;51.814;4.600;2023-09-19T11:33:18;100956.75;;;20.67;60.35
75006;BME280;63553;51.814;4.600;2023-09-19T11:49:17;100951.91;;;20.30;61.52
75006;BME280;63553;51.814;4.600;2023-09-19T11:51:50;100960.09;;;20.42;61.14
75006;BME280;63553;51.814;4.600;2023-09-19T11:54:20;100953.34;;;20.50;60.96
75006;BME280;63553;51.814;4.600;2023-09-19T11:56:52;100946.22;;;20.64;61.52
75006;BME280;63553;51.814;4.600;2023-09-19T11:59:21;100954.97;;;20.52;61.10
75006;BME280;63553;51.814;4.600;2023-09-19T12:01:54;100951.28;;;20.47;61.51
75006;BME280;63553;51.814;4.600;2023-09-19T12:04:33;100944.13;;;20.24;61.97
75006;BME280;63553;51.814;4.600;2023-09-19T12:07:04;100956.06;;;20.14;61.71
75006;BME280;63553;51.814;4.600;2023-09-19T12:09:31;100951.78;;;20.23;62.45
75006;BME280;63553;51.814;4.600;2023-09-19T12:11:56;100951.31;;;20.18;63.08
75006;BME280;63553;51.814;4.600;2023-09-19T12:14:26;100967.06;;;20.22;62.17
75006;BME280;63553;51.814;4.600;2023-09-19T12:16:56;100955.50;;;20.27;62.04
75006;BME280;63553;51.814;4.600;2023-09-19T12:19:22;100961.88;;;20.24;62.42
75006;BME280;63553;51.814;4.600;2023-09-19T12:22:01;100965.06;;;20.52;61.59
75006;BME280;63553;51.814;4.600;2023-09-19T12:24:29;100961.97;;;20.28;62.14
75006;BME280;63553;51.814;4.600;2023-09-19T12:27:00;100958.84;;;20.07;63.33
75006;BME280;63553;51.814;4.600;2023-09-19T12:29:29;100967.44;;;19.87;63.95
75006;BME280;63553;51.814;4.600;2023-09-19T12:31:58;100973.06;;;19.87;64.31
75006;BME280;63553;51.814;4.600;2023-09-19T12:37:11;100986.06;;;20.55;63.69
75006;BME280;63553;51.814;4.600;2023-09-19T12:39:51;100976.91;;;20.65;63.01
75006;BME280;63553;51.814;4.600;2023-09-19T12:42:24;100970.16;;;20.77;62.63
75006;BME280;63553;51.814;4.600;2023-09-19T12:44:53;100970.38;;;20.61;63.78
75006;BME280;63553;51.814;4.600;2023-09-19T12:47:23;100970.03;;;20.29;65.29
75006;BME280;63553;51.814;4.600;2023-09-19T12:52:39;100966.53;;;20.39;64.66
75006;BME280;63553;51.814;4.600;2023-09-19T12:55:05;100962.72;;;19.95;65.51
75006;BME280;63553;51.814;4.600;2023-09-19T12:57:36;100945.72;;;20.21;64.70
75006;BME280;63553;51.814;4.600;2023-09-19T13:00:02;100939.53;;;20.42;63.79
75006;BME280;63553;51.814;4.600;2023-09-19T13:02:30;100945.22;;;20.45;62.75
75006;BME280;63553;51.814;4.600;2023-09-19T13:04:56;100935.22;;;20.55;62.66
75006;BME280;63553;51.814;4.600;2023-09-19T13:07:41;100930.88;;;20.65;62.71
75006;BME280;63553;51.814;4.600;2023-09-19T13:10:09;100939.19;;;20.87;62.00
75006;BME280;63553;51.814;4.600;2023-09-19T13:12:37;100945.91;;;20.76;61.83
75006;BME280;63553;51.814;4.600;2023-09-19T13:15:08;100945.72;;;20.55;62.21
75006;BME280;63553;51.814;4.600;2023-09-19T13:17:48;100944.00;;;20.46;62.01
75006;BME280;63553;51.814;4.600;2023-09-19T13:20:24;100954.97;;;20.52;62.25
75006;BME280;63553;51.814;4.600;2023-09-19T13:22:55;100959.00;;;20.21;62.08
75006;BME280;63553;51.814;4.600;2023-09-19T13:25:26;100947.84;;;20.31;62.04
75006;BME280;63553;51.814;4.600;2023-09-19T13:27:56;100946.72;;;20.36;62.36
75006;BME280;63553;51.814;4.600;2023-09-19T13:30:24;100934.94;;;20.30;62.53
75006;BME280;63553;51.814;4.600;2023-09-19T13:33:08;100933.19;;;20.22;61.98
75006;BME280;63553;51.814;4.600;2023-09-19T13:35:35;100937.06;;;20.40;62.26
75006;BME280;63553;51.814;4.600;2023-09-19T13:38:03;100940.22;;;20.02;61.96
75006;BME280;63553;51.814;4.600;2023-09-19T13:40:29;100938.16;;;19.99;61.67
75006;BME280;63553;51.814;4.600;2023-09-19T13:43:00;100930.66;;;20.14;62.67
75006;BME280;63553;51.814;4.600;2023-09-19T13:45:26;100922.66;;;20.19;62.44
75006;BME280;63553;51.814;4.600;2023-09-19T13:47:52;100932.00;;;20.23;62.38
75006;BME280;63553;51.814;4.600;2023-09-19T13:50:17;100939.50;;;20.09;62.27
75006;BME280;63553;51.814;4.600;2023-09-19T13:52:49;100934.09;;;19.96;62.42
75006;BME280;63553;51.814;4.600;2023-09-19T13:55:16;100944.38;;;20.12;62.04
75006;BME280;63553;51.814;4.600;2023-09-19T13:57:45;100943.78;;;19.99;62.44
75006;BME280;63553;51.814;4.600;2023-09-19T14:00:12;100952.19;;;19.92;62.95
75006;BME280;63553;51.814;4.600;2023-09-19T14:02:41;100939.97;;;20.14;62.93